createdAt,value
2022-12-25T00:01:40.188Z,98.80
2022-12-25T00:11:58.265Z,99.30
2022-12-25T00:17:00.305Z,99.20
2022-12-25T00:22:02.423Z,99.30
2022-12-25T00:27:04.654Z,99.40
2022-12-25T00:32:06.918Z,99.20
2022-12-25T00:37:09.292Z,99.00
2022-12-25T00:42:20.942Z,99.00
2022-12-25T00:47:23.320Z,98.90
2022-12-25T00:52:25.511Z,98.80
2022-12-25T00:57:27.648Z,98.70
2022-12-25T01:02:29.808Z,99.00
2022-12-25T01:07:31.976Z,98.40
2022-12-25T01:12:39.251Z,98.20
2022-12-25T01:17:43.023Z,98.80
2022-12-25T01:22:46.032Z,98.80
2022-12-25T01:27:48.029Z,98.60
2022-12-25T01:32:50.029Z,98.20
2022-12-25T01:37:52.726Z,98.50
2022-12-25T01:42:54.801Z,98.40
2022-12-25T01:47:57.284Z,98.40
2022-12-25T01:52:59.381Z,98.60
2022-12-25T01:58:01.514Z,98.30
2022-12-25T02:03:04.938Z,97.30
2022-12-25T02:08:14.974Z,97.20
2022-12-25T02:13:20.421Z,97.40
2022-12-25T02:18:39.888Z,98.20
2022-12-25T02:24:03.475Z,97.90
2022-12-25T02:29:23.507Z,98.40
2022-12-25T02:34:47.583Z,98.10
2022-12-25T02:40:12.924Z,98.40
2022-12-25T02:45:44.920Z,98.40
2022-12-25T02:51:07.135Z,98.90
2022-12-25T02:56:28.991Z,98.60
2022-12-25T03:01:53.801Z,98.60
2022-12-25T03:07:04.567Z,98.20
2022-12-25T03:12:42.889Z,98.40
2022-12-25T03:17:45.358Z,98.60
2022-12-25T03:23:07.067Z,98.70
2022-12-25T03:28:09.422Z,98.40
2022-12-25T03:33:46.095Z,98.50
2022-12-25T03:39:21.276Z,98.40
2022-12-25T03:45:05.838Z,98.30
2022-12-25T03:50:37.452Z,98.20
2022-12-25T03:56:00.202Z,98.30
2022-12-25T04:01:21.017Z,98.90
2022-12-25T04:06:41.721Z,98.30
2022-12-25T04:12:03.234Z,98.20
2022-12-25T04:17:23.692Z,98.20
2022-12-25T04:22:44.349Z,98.40
2022-12-25T04:28:04.974Z,98.60
2022-12-25T04:33:25.432Z,99.10
2022-12-25T04:38:27.382Z,98.40
2022-12-25T04:43:29.989Z,98.40
2022-12-25T04:48:35.935Z,99.00
2022-12-25T04:53:37.942Z,98.80
2022-12-25T04:58:41.152Z,98.80
2022-12-25T05:03:43.524Z,98.70
2022-12-25T05:08:45.561Z,98.40
2022-12-25T05:13:47.541Z,98.60
2022-12-25T05:18:51.453Z,98.70
2022-12-25T05:23:54.110Z,98.60
2022-12-25T05:28:56.724Z,98.80
2022-12-25T05:33:59.175Z,99.00
2022-12-25T05:39:01.127Z,99.00
2022-12-25T05:44:03.333Z,98.70
2022-12-25T05:49:05.827Z,98.90
2022-12-25T05:54:07.954Z,98.60
2022-12-25T05:59:10.336Z,98.20
2022-12-25T06:04:13.213Z,98.60
2022-12-25T06:09:15.406Z,98.40
2022-12-25T06:14:17.421Z,98.90
2022-12-25T06:19:20.875Z,98.50
2022-12-25T06:24:24.057Z,98.50
2022-12-25T06:29:26.220Z,98.30
2022-12-25T06:34:28.301Z,97.70
2022-12-25T06:39:30.451Z,97.90
2022-12-25T06:44:33.761Z,98.30
2022-12-25T06:49:35.987Z,98.50
2022-12-25T06:54:38.025Z,98.40
2022-12-25T06:59:40.346Z,98.40
2022-12-25T07:04:43.293Z,98.40
2022-12-25T07:09:45.311Z,98.40
2022-12-25T07:14:50.036Z,98.50
2022-12-25T07:19:52.556Z,98.40
2022-12-25T07:24:54.557Z,98.00
2022-12-25T07:29:56.526Z,97.80
2022-12-25T07:34:59.014Z,97.30
2022-12-25T07:40:01.186Z,97.00
2022-12-25T07:45:04.251Z,98.00
2022-12-25T07:50:07.435Z,97.40
2022-12-25T07:55:10.629Z,97.20
2022-12-25T08:00:13.697Z,97.40
2022-12-25T08:05:15.883Z,97.80
2022-12-25T08:10:17.985Z,97.90
2022-12-25T08:15:19.969Z,97.70
2022-12-25T08:20:22.354Z,97.80
2022-12-25T08:25:24.302Z,97.10
2022-12-25T08:30:26.538Z,97.10
2022-12-25T08:35:28.650Z,97.60
2022-12-25T08:40:30.663Z,97.30
2022-12-25T08:45:35.450Z,97.50
2022-12-25T08:50:37.533Z,97.00
2022-12-25T08:55:40.311Z,96.80
2022-12-25T09:00:42.729Z,96.30
2022-12-25T09:05:44.716Z,96.40
2022-12-25T09:10:46.662Z,96.20
2022-12-25T09:15:48.725Z,96.40
2022-12-25T09:21:03.081Z,96.20
2022-12-25T09:26:08.571Z,96.10
2022-12-25T09:31:11.608Z,96.20
2022-12-25T09:36:13.855Z,96.30
2022-12-25T09:41:50.431Z,96.10
2022-12-25T09:47:04.547Z,96.10
2022-12-25T09:52:25.866Z,95.80
2022-12-25T09:57:28.033Z,95.60
2022-12-25T10:02:52.079Z,95.40
2022-12-25T10:08:04.287Z,95.40
2022-12-25T10:13:06.210Z,95.30
2022-12-25T10:18:17.215Z,95.40
2022-12-25T10:23:39.052Z,94.70
2022-12-25T10:28:46.846Z,94.10
2022-12-25T10:33:51.181Z,94.10
2022-12-25T10:38:55.012Z,94.10
2022-12-25T10:43:57.958Z,93.90
2022-12-25T10:49:02.927Z,94.00
2022-12-25T10:54:27.931Z,94.20
2022-12-25T10:59:41.815Z,94.00
2022-12-25T11:04:44.396Z,94.10
2022-12-25T11:10:02.731Z,93.90
2022-12-25T11:15:39.261Z,93.80
2022-12-25T11:21:00.628Z,93.70
2022-12-25T11:26:08.400Z,92.40
2022-12-25T11:31:21.240Z,90.50
2022-12-25T11:36:45.469Z,92.50
2022-12-25T11:41:50.488Z,92.50
2022-12-25T12:33:20.133Z,92.00
2022-12-25T12:38:24.710Z,62.50
2022-12-25T12:43:39.686Z,65.70
2022-12-25T12:48:46.880Z,65.10
2022-12-25T12:53:48.877Z,73.80
2022-12-25T12:58:51.331Z,80.30
2022-12-25T13:04:40.377Z,84.70
2022-12-25T14:47:55.636Z,85.50
2022-12-25T14:52:59.723Z,90.70
2022-12-25T14:58:07.806Z,91.20
2022-12-25T15:03:32.211Z,92.10
2022-12-25T15:08:35.606Z,92.90
2022-12-25T15:13:37.731Z,92.20
2022-12-25T15:18:44.566Z,91.80
2022-12-25T15:23:47.089Z,91.70
2022-12-25T15:28:49.272Z,91.30
2022-12-25T15:33:53.167Z,91.40
2022-12-25T15:38:55.873Z,90.90
2022-12-25T15:43:58.016Z,90.50
2022-12-25T15:49:00.922Z,90.10
2022-12-25T15:54:02.965Z,89.90
2022-12-25T15:59:05.033Z,89.50
2022-12-25T16:04:07.091Z,88.90
2022-12-25T16:09:12.290Z,88.70
2022-12-25T16:14:15.105Z,88.70
2022-12-25T16:19:17.082Z,86.90
2022-12-25T16:24:19.139Z,86.80
2022-12-25T16:29:21.205Z,86.50
2022-12-25T16:34:23.225Z,85.90
2022-12-25T16:39:25.238Z,84.70
2022-12-25T16:44:27.310Z,82.60
2022-12-25T16:49:29.401Z,81.60
2022-12-25T16:54:31.490Z,83.10
2022-12-25T16:59:34.731Z,83.40
2022-12-25T17:04:36.770Z,84.50
2022-12-25T17:09:44.047Z,82.90
2022-12-25T17:14:46.621Z,81.90
2022-12-25T17:19:48.622Z,79.90
2022-12-25T17:24:50.720Z,80.30
2022-12-25T17:29:52.863Z,81.60
2022-12-25T17:34:54.920Z,81.30
2022-12-25T17:39:56.974Z,82.10
2022-12-25T17:44:58.994Z,82.70
2022-12-25T17:50:00.993Z,82.80
2022-12-25T17:55:03.215Z,83.60
2022-12-25T18:00:06.674Z,84.50
2022-12-25T18:05:09.270Z,84.40
2022-12-25T18:10:12.143Z,84.20
2022-12-25T18:15:14.394Z,84.30
2022-12-25T18:20:16.567Z,84.60
2022-12-25T18:25:18.622Z,85.10
2022-12-25T18:30:21.039Z,85.30
2022-12-25T18:35:23.475Z,85.70
2022-12-25T18:40:25.414Z,86.40
2022-12-25T18:55:33.246Z,87.00
2022-12-25T19:00:35.329Z,86.90
2022-12-25T19:05:40.586Z,86.60
2022-12-25T19:10:45.482Z,87.00
2022-12-25T19:15:47.553Z,87.30
2022-12-25T19:20:49.675Z,87.60
2022-12-25T19:25:51.704Z,87.90
